Time;durP1;ratioP1;P1;durP2;ratioP2;P2;SDS_P1;SDS_P2;PMS_P1;PMS_P2;Temp;Humidity;BMP_temperature;BMP_pressure;BME280_temperature;BME280_humidity;BME280_pressure;Samples;Min_cycle;Max_cycle;Signal;HPM_P1;HPM_P2
2022/07/31 00:00:10;;;;;;;8.63;3.17;;;;;;;22.81;57.91;97847.97;4486861;32;20447;-80
2022/07/31 00:02:37;;;;;;;6.75;3.05;;;;;;;22.34;59.54;97849.84;4488256;31;20080;-80
2022/07/31 00:05:04;;;;;;;6.68;3.20;;;;;;;22.13;60.65;97841.34;4488146;31;20136;-80
2022/07/31 00:07:31;;;;;;;6.85;3.20;;;;;;;22.44;59.79;97849.81;4487957;31;20172;-80
2022/07/31 00:09:58;;;;;;;6.28;3.10;;;;;;;22.46;59.46;97840.00;4488244;31;20084;-80
2022/07/31 00:12:25;;;;;;;6.15;3.15;;;;;;;22.75;58.63;97845.09;4486705;32;20148;-80
2022/07/31 00:14:53;;;;;;;6.80;3.20;;;;;;;22.48;59.41;97817.81;4487979;31;20579;-80
2022/07/31 00:17:20;;;;;;;7.15;3.10;;;;;;;22.32;60.39;97845.69;4488095;31;20096;-80
2022/07/31 00:19:47;;;;;;;6.37;3.12;;;;;;;22.43;60.08;97843.72;4487658;31;20102;-80
2022/07/31 00:22:14;;;;;;;6.18;3.37;;;;;;;22.19;61.39;97840.75;4488246;31;20148;-80
2022/07/31 00:24:41;;;;;;;8.25;3.53;;;;;;;22.76;59.75;97841.50;4487828;31;20151;-80
2022/07/31 00:27:09;;;;;;;9.55;3.30;;;;;;;22.87;59.16;97837.88;4487668;31;20120;-80
2022/07/31 00:29:37;;;;;;;6.72;3.15;;;;;;;22.67;59.98;97840.59;4488202;31;20517;-80
2022/07/31 00:32:05;;;;;;;7.78;3.20;;;;;;;22.24;61.16;97828.03;4488069;31;20088;-80
2022/07/31 00:34:32;;;;;;;6.62;3.35;;;;;;;21.84;62.49;97834.34;4487591;31;20116;-80
2022/07/31 00:36:59;;;;;;;6.35;3.37;;;;;;;21.79;63.09;97840.97;4487949;31;20114;-80
2022/07/31 00:39:26;;;;;;;6.80;3.40;;;;;;;22.03;62.35;97832.62;4488024;31;20140;-80
2022/07/31 00:41:53;;;;;;;5.82;3.10;;;;;;;22.28;61.52;97842.53;4487630;31;20110;-80
2022/07/31 00:44:20;;;;;;;7.82;3.42;;;;;;;22.17;61.49;97835.66;4487904;31;20551;-80
2022/07/31 00:46:48;;;;;;;7.28;3.15;;;;;;;21.91;62.60;97830.19;4487976;31;20104;-80
2022/07/31 00:49:15;;;;;;;8.50;3.37;;;;;;;22.08;62.56;97830.44;4487345;31;20089;-80
2022/07/31 00:51:42;;;;;;;7.00;3.50;;;;;;;21.72;64.08;97832.84;4488042;31;20147;-80
2022/07/31 00:54:10;;;;;;;6.18;3.22;;;;;;;21.74;64.09;97817.75;4487818;31;20163;-80
2022/07/31 00:56:49;;;;;;;7.82;3.58;;;;;;;21.81;63.91;97836.41;4487831;31;20636;-80
2022/07/31 00:59:16;;;;;;;10.15;3.50;;;;;;;21.82;63.70;97827.56;4487741;31;20072;-80
2022/07/31 01:01:50;;;;;;;7.20;3.40;;;;;;;21.25;66.24;97826.59;4487632;32;20652;-80
2022/07/31 01:04:17;;;;;;;8.95;3.50;;;;;;;21.72;64.62;97830.22;4487700;31;20112;-80
2022/07/31 01:06:46;;;;;;;6.85;3.53;;;;;;;21.18;66.70;97833.38;4487716;31;20156;-80
2022/07/31 01:09:13;;;;;;;7.80;3.37;;;;;;;21.24;66.82;97830.19;4487416;31;20119;-80
2022/07/31 01:11:48;;;;;;;8.38;3.85;;;;;;;21.26;66.44;97836.97;4487936;31;20132;-80
2022/07/31 01:14:19;;;;;;;8.43;3.70;;;;;;;20.88;68.40;97829.06;4486478;32;20129;-80
2022/07/31 01:16:48;;;;;;;7.12;3.50;;;;;;;21.29;66.95;97826.22;4487291;31;20164;-80
2022/07/31 01:19:23;;;;;;;9.13;3.80;;;;;;;21.05;68.01;97831.00;4487706;31;20128;-80
2022/07/31 01:22:46;;;;;;;7.62;3.33;;;;;;;20.73;69.21;97820.72;4487915;31;20073;-80
2022/07/31 01:25:25;;;;;;;7.97;3.65;;;;;;;20.66;69.19;97822.25;4487550;32;20394;-80
2022/07/31 01:28:19;;;;;;;9.13;3.83;;;;;;;21.08;67.63;97828.94;4487847;31;20144;-80
2022/07/31 01:30:59;;;;;;;8.40;4.20;;;;;;;20.56;69.36;97816.13;4486617;32;20084;-80
2022/07/31 01:33:49;;;;;;;9.52;4.32;;;;;;;20.68;69.58;97823.75;4487660;31;20076;-79
2022/07/31 01:36:20;;;;;;;10.07;4.10;;;;;;;20.77;68.89;97827.38;4487551;31;20464;-80
2022/07/31 01:38:51;;;;;;;7.35;3.78;;;;;;;21.15;67.39;97817.88;4487488;31;20144;-80
2022/07/31 01:41:24;;;;;;;13.18;4.43;;;;;;;21.17;67.61;97829.94;4487590;31;20080;-80
2022/07/31 01:43:52;;;;;;;8.68;3.97;;;;;;;21.03;67.68;97817.19;4486110;32;20486;-80
2022/07/31 01:46:20;;;;;;;9.55;4.50;;;;;;;20.43;70.42;97832.09;4487551;31;20494;-80
2022/07/31 01:48:47;;;;;;;8.98;4.30;;;;;;;20.56;70.24;97835.31;4487466;31;20164;-80
2022/07/31 01:51:16;;;;;;;8.68;4.70;;;;;;;20.36;71.25;97825.69;4485880;32;20088;-80
2022/07/31 01:53:44;;;;;;;8.27;4.07;;;;;;;21.13;67.44;97818.03;4487495;31;20135;-80
2022/07/31 01:56:12;;;;;;;8.68;4.53;;;;;;;21.02;67.77;97826.84;4486280;32;20122;-79
2022/07/31 01:58:40;;;;;;;7.78;4.00;;;;;;;20.53;69.99;97829.53;4487088;31;20132;-80
2022/07/31 02:01:08;;;;;;;8.45;4.37;;;;;;;20.93;68.04;97819.78;4486317;32;20168;-80
2022/07/31 02:03:38;;;;;;;10.48;4.87;;;;;;;20.25;70.94;97810.06;4486165;32;20080;-80
2022/07/31 02:06:12;;;;;;;9.82;4.87;;;;;;;20.50;69.88;97823.56;4485643;32;20110;-80
2022/07/31 02:08:39;;;;;;;8.93;4.30;;;;;;;20.66;69.34;97827.47;4487303;31;20107;-80
2022/07/31 02:11:06;;;;;;;11.10;4.78;;;;;;;20.39;70.15;97821.00;4486240;32;20155;-80
2022/07/31 02:13:35;;;;;;;11.77;4.78;;;;;;;20.87;68.28;97824.78;4485856;32;20115;-80
2022/07/31 02:16:02;;;;;;;9.27;4.55;;;;;;;20.69;68.65;97821.97;4487293;31;20144;-80
2022/07/31 02:18:32;;;;;;;8.93;4.12;;;;;;;20.28;70.31;97820.28;4486992;31;20139;-80
2022/07/31 02:20:59;;;;;;;9.50;4.55;;;;;;;20.33;70.55;97828.59;4487256;31;20104;-80
2022/07/31 02:23:26;;;;;;;9.15;4.65;;;;;;;20.40;70.14;97843.63;4487148;31;20133;-80
2022/07/31 02:25:53;;;;;;;9.68;4.65;;;;;;;20.60;68.74;97826.22;4486853;31;20104;-80
2022/07/31 02:28:21;;;;;;;9.35;3.95;;;;;;;20.67;68.66;97835.22;4487256;31;20135;-80
2022/07/31 02:30:48;;;;;;;9.82;4.32;;;;;;;20.65;68.47;97831.06;4485917;32;20832;-80
2022/07/31 02:33:19;;;;;;;10.32;4.45;;;;;;;20.67;68.47;97832.59;4486849;31;20115;-80
2022/07/31 02:35:48;;;;;;;10.35;4.65;;;;;;;20.62;68.42;97829.53;4485774;32;20104;-80
2022/07/31 02:38:20;;;;;;;7.97;4.20;;;;;;;20.83;67.59;97834.69;4487058;31;20145;-80
2022/07/31 02:40:55;;;;;;;11.70;4.65;;;;;;;20.21;70.46;97836.53;4486770;31;20434;-79
2022/07/31 02:43:24;;;;;;;9.60;4.80;;;;;;;20.31;70.31;97836.56;4472910;32;20122;-80
2022/07/31 02:45:51;;;;;;;9.93;4.45;;;;;;;20.29;69.94;97841.09;4486927;31;20088;-80
2022/07/31 02:48:18;;;;;;;9.23;4.68;;;;;;;20.22;69.85;97843.44;4485424;32;20126;-80
2022/07/31 02:50:45;;;;;;;9.65;4.47;;;;;;;20.95;67.29;97846.75;4486635;31;20123;-80
2022/07/31 02:53:12;;;;;;;10.07;4.97;;;;;;;21.61;64.47;97846.94;4486956;32;20137;-80
2022/07/31 02:55:39;;;;;;;9.10;4.60;;;;;;;21.23;66.04;97855.59;4486323;31;20131;-80
2022/07/31 02:58:07;;;;;;;8.85;4.53;;;;;;;21.72;64.08;97845.13;4472656;32;20167;-80
2022/07/31 03:00:34;;;;;;;11.45;4.00;;;;;;;21.67;64.46;97850.78;4486493;31;20492;-80
2022/07/31 03:03:02;;;;;;;9.27;4.20;;;;;;;21.60;63.74;97850.53;4486871;31;20084;-80
2022/07/31 03:05:30;;;;;;;9.50;4.57;;;;;;;21.16;65.59;97848.41;4486451;31;20557;-80
2022/07/31 03:07:57;;;;;;;10.00;3.97;;;;;;;20.86;66.44;97836.22;4486437;31;20097;-80
2022/07/31 03:10:24;;;;;;;9.85;4.30;;;;;;;21.36;64.91;97840.44;4486625;31;20414;-80
2022/07/31 03:12:53;;;;;;;8.35;4.12;;;;;;;21.13;65.33;97846.06;4486670;31;20088;-80
2022/07/31 03:15:24;;;;;;;9.50;3.95;;;;;;;21.24;64.38;97845.94;4484884;32;20160;-80
2022/07/31 03:17:52;;;;;;;10.05;4.28;;;;;;;21.16;64.59;97840.53;4486653;31;20136;-80
2022/07/31 03:20:19;;;;;;;7.60;3.70;;;;;;;21.51;62.84;97835.63;4485270;32;20108;-80
2022/07/31 03:22:47;;;;;;;7.72;3.62;;;;;;;20.83;64.83;97841.72;4486116;31;20472;-80
2022/07/31 03:25:14;;;;;;;10.45;3.72;;;;;;;21.17;64.08;97827.31;4485079;32;20108;-80
2022/07/31 03:27:49;;;;;;;9.57;3.60;;;;;;;20.47;66.36;97841.34;4485339;32;20476;-80
2022/07/31 03:30:24;;;;;;;8.52;3.50;;;;;;;20.97;64.21;97844.81;4486169;31;20092;-80
2022/07/31 03:32:55;;;;;;;7.45;3.70;;;;;;;20.38;65.49;97834.25;4486366;31;20633;-80
2022/07/31 03:35:23;;;;;;;7.80;3.60;;;;;;;20.41;65.32;97847.06;4486126;31;20168;-80
2022/07/31 03:37:50;;;;;;;7.40;3.65;;;;;;;20.80;64.09;97837.59;4485988;31;20120;-80
2022/07/31 03:40:17;;;;;;;7.60;3.60;;;;;;;21.01;63.25;97840.09;4486238;31;20119;-80
2022/07/31 03:42:45;;;;;;;8.13;3.58;;;;;;;21.45;61.63;97838.78;4484700;32;20167;-80
2022/07/31 03:45:12;;;;;;;7.15;3.55;;;;;;;21.15;62.53;97841.50;4484701;32;20114;-80
2022/07/31 03:47:39;;;;;;;6.85;3.70;;;;;;;20.88;63.47;97837.75;4486079;31;20101;-80
2022/07/31 03:50:07;;;;;;;8.68;3.37;;;;;;;21.32;61.74;97854.81;4484306;32;20499;-80
2022/07/31 03:52:35;;;;;;;7.18;3.40;;;;;;;21.23;61.55;97850.34;4486086;31;20084;-80
2022/07/31 03:55:02;;;;;;;7.60;3.40;;;;;;;21.21;61.40;97852.28;4486078;32;20155;-80
2022/07/31 03:57:29;;;;;;;7.15;3.50;;;;;;;21.49;60.35;97844.59;4487993;31;20104;-80
2022/07/31 04:00:01;;;;;;;8.90;3.50;;;;;;;21.43;60.07;97848.59;4488402;31;20084;-80
2022/07/31 04:02:29;;;;;;;6.60;3.22;;;;;;;21.46;60.56;97850.94;4487171;32;20076;-80
2022/07/31 04:04:57;;;;;;;7.43;3.45;;;;;;;21.69;59.49;97851.47;4487869;31;20100;-80
2022/07/31 04:07:24;;;;;;;8.43;3.45;;;;;;;20.66;62.80;97851.91;4488214;31;20096;-80
2022/07/31 04:09:51;;;;;;;7.05;3.25;;;;;;;21.82;58.63;97851.22;4488164;31;20152;-79
2022/07/31 04:12:18;;;;;;;8.40;3.60;;;;;;;22.08;57.44;97843.56;4487758;31;20171;-80
2022/07/31 04:14:45;;;;;;;6.07;3.22;;;;;;;20.99;61.24;97858.59;4488023;31;20172;-80
2022/07/31 04:17:13;;;;;;;9.35;3.60;;;;;;;20.75;62.10;97845.03;4488158;31;20100;-80
2022/07/31 04:19:40;;;;;;;9.27;3.30;;;;;;;21.38;59.28;97848.19;4487766;31;20093;-80
2022/07/31 04:22:07;;;;;;;8.60;3.30;;;;;;;21.98;57.29;97848.81;4488203;31;20124;-80
2022/07/31 04:24:34;;;;;;;8.20;3.33;;;;;;;21.39;58.89;97846.41;4488011;31;20096;-80
2022/07/31 04:27:03;;;;;;;7.78;3.22;;;;;;;20.90;60.57;97850.72;4487792;31;20104;-80
2022/07/31 04:29:37;;;;;;;6.37;3.10;;;;;;;21.70;57.70;97847.06;4488250;31;20084;-80
2022/07/31 04:32:05;;;;;;;5.93;3.00;;;;;;;21.71;57.08;97841.69;4482955;31;149760;-80
2022/07/31 04:34:32;;;;;;;7.43;3.20;;;;;;;21.76;56.99;97847.31;4487854;31;20470;-80
2022/07/31 04:36:59;;;;;;;5.90;3.10;;;;;;;22.00;55.75;97846.88;4487944;31;20141;-80
2022/07/31 04:39:26;;;;;;;7.80;3.20;;;;;;;22.05;55.61;97831.53;4487593;31;20163;-80
2022/07/31 04:41:54;;;;;;;9.25;3.30;;;;;;;21.84;56.45;97857.13;4488071;31;20084;-80
2022/07/31 04:44:22;;;;;;;7.20;3.20;;;;;;;22.18;55.59;97853.06;4487830;31;20230;-80
2022/07/31 04:46:49;;;;;;;8.70;3.15;;;;;;;22.03;56.35;97861.53;4487576;31;20106;-80
2022/07/31 04:49:16;;;;;;;7.10;3.20;;;;;;;22.97;53.06;97859.69;4487775;31;20088;-80
2022/07/31 04:51:43;;;;;;;6.57;3.28;;;;;;;21.78;56.50;97848.00;4488065;31;20081;-80
2022/07/31 04:54:11;;;;;;;9.38;3.40;;;;;;;21.89;56.35;97852.28;4487457;32;20126;-80
2022/07/31 04:56:41;;;;;;;7.53;3.50;;;;;;;22.17;55.56;97858.47;4487956;31;20159;-80
2022/07/31 04:59:14;;;;;;;7.00;3.35;;;;;;;22.17;55.66;97863.72;4487784;31;20102;-80
2022/07/31 05:01:42;;;;;;;7.90;3.37;;;;;;;21.76;56.79;97862.25;4487450;31;20122;-80
2022/07/31 05:04:09;;;;;;;9.30;3.80;;;;;;;21.61;57.24;97859.25;4487718;31;20093;-80
2022/07/31 05:06:43;;;;;;;5.95;3.03;;;;;;;22.39;55.28;97868.63;4486856;31;20115;-80
2022/07/31 05:09:13;;;;;;;7.22;3.33;;;;;;;22.90;53.49;97880.50;4487608;31;20147;-80
2022/07/31 05:11:46;;;;;;;8.93;3.35;;;;;;;23.69;50.96;97886.91;4487930;31;20076;-80
2022/07/31 05:14:15;;;;;;;8.43;3.25;;;;;;;23.34;52.08;97883.25;4487361;31;20136;-80
2022/07/31 05:16:43;;;;;;;6.80;3.08;;;;;;;23.87;50.30;97875.37;4487940;31;20118;-80
2022/07/31 05:19:10;;;;;;;6.87;3.35;;;;;;;23.30;52.52;97887.19;4487670;31;20494;-80
2022/07/31 05:21:41;;;;;;;7.50;3.25;;;;;;;23.46;51.64;97889.97;4487490;31;20144;-80
2022/07/31 05:24:20;;;;;;;6.75;3.00;;;;;;;23.32;52.36;97891.31;4487666;31;20116;-80
2022/07/31 05:27:01;;;;;;;7.80;3.08;;;;;;;23.98;50.73;97894.53;4487607;31;20495;-80
2022/07/31 05:29:28;;;;;;;6.95;3.30;;;;;;;24.79;48.59;97892.41;4487348;31;20084;-80
2022/07/31 05:31:55;;;;;;;8.05;3.05;;;;;;;24.77;48.03;97886.44;4487711;31;20172;-80
2022/07/31 05:34:28;;;;;;;7.07;3.15;;;;;;;24.92;47.72;97892.78;4487637;31;20154;-80
2022/07/31 05:36:57;;;;;;;6.68;3.08;;;;;;;24.65;48.21;97872.72;4487474;31;20111;-80
2022/07/31 05:39:25;;;;;;;6.07;3.17;;;;;;;24.44;49.00;97901.28;4487564;31;20080;-80
2022/07/31 05:41:52;;;;;;;6.30;3.08;;;;;;;24.36;49.16;97901.28;4487661;31;20390;-80
2022/07/31 05:44:19;;;;;;;5.37;3.08;;;;;;;23.98;50.33;97913.00;4487114;31;20115;-80
2022/07/31 05:46:46;;;;;;;6.10;3.15;;;;;;;24.60;48.83;97911.13;4487765;31;20403;-80
2022/07/31 05:49:13;;;;;;;6.40;3.05;;;;;;;25.18;47.39;97916.50;4486982;31;20163;-80
2022/07/31 05:51:43;;;;;;;6.68;3.03;;;;;;;24.79;47.95;97908.25;4487582;31;20099;-80
2022/07/31 05:54:10;;;;;;;6.15;3.00;;;;;;;24.73;47.78;97916.78;4487532;31;20119;-80
2022/07/31 05:56:37;;;;;;;7.00;3.25;;;;;;;24.20;49.86;97917.75;4487147;31;20135;-80
2022/07/31 05:59:04;;;;;;;6.90;3.08;;;;;;;24.45;48.87;97905.59;4487445;31;20155;-80
2022/07/31 06:01:31;;;;;;;7.03;3.15;;;;;;;25.39;46.91;97923.97;4487481;31;20306;-80
2022/07/31 06:03:58;;;;;;;5.87;3.20;;;;;;;24.93;47.35;97920.00;4485856;32;20455;-80
2022/07/31 06:06:25;;;;;;;5.57;2.85;;;;;;;23.50;51.58;97914.16;4487473;31;20127;-80
2022/07/31 06:08:52;;;;;;;8.52;3.60;;;;;;;24.09;50.16;97918.00;4487473;31;20577;-80
2022/07/31 06:11:19;;;;;;;8.88;3.53;;;;;;;24.32;49.34;97924.47;4486918;31;20123;-80
2022/07/31 06:13:46;;;;;;;8.48;3.15;;;;;;;24.85;48.32;97920.78;4487291;31;20093;-80
2022/07/31 06:16:15;;;;;;;6.32;2.85;;;;;;;24.44;49.15;97917.12;4487252;31;20104;-80
2022/07/31 06:18:42;;;;;;;7.57;3.40;;;;;;;23.92;50.16;97923.16;4486544;31;20628;-80
2022/07/31 06:21:11;;;;;;;8.82;3.45;;;;;;;25.06;47.35;97920.41;4487324;31;20076;-80
2022/07/31 06:23:36;;;;;;;6.93;2.92;;;;;;;25.15;47.13;97921.28;4485991;32;20122;-80
2022/07/31 06:26:04;;;;;;;7.10;2.85;;;;;;;25.09;47.52;97923.59;4486945;31;20100;-80
2022/07/31 06:28:31;;;;;;;7.50;3.20;;;;;;;23.92;49.92;97919.69;4487328;31;20102;-80
2022/07/31 06:31:21;;;;;;;6.45;3.22;;;;;;;24.97;47.53;97911.59;4487036;31;20431;-80
2022/07/31 06:33:49;;;;;;;8.25;3.15;;;;;;;24.74;48.44;97929.00;4487170;31;20093;-80
2022/07/31 06:36:17;;;;;;;8.27;3.05;;;;;;;24.74;48.02;97919.25;4487154;31;20156;-80
2022/07/31 06:38:44;;;;;;;6.50;2.87;;;;;;;23.74;50.38;97914.44;4486636;31;20410;-80
2022/07/31 06:41:43;;;;;;;7.35;3.15;;;;;;;24.13;49.26;97912.28;4487101;31;20076;-80
2022/07/31 06:44:02;;;;;;;7.37;3.08;;;;;;;24.20;48.97;97925.66;4486005;32;20104;-80
2022/07/31 06:46:29;;;;;;;6.28;2.80;;;;;;;24.52;47.63;97925.09;4486660;31;20506;-80
2022/07/31 06:48:56;;;;;;;6.12;2.97;;;;;;;24.29;47.90;97916.00;4486977;31;20092;-80
2022/07/31 06:51:23;;;;;;;6.07;3.10;;;;;;;24.24;48.01;97925.22;4486944;31;20085;-80
2022/07/31 06:54:02;;;;;;;9.80;3.25;;;;;;;24.56;47.36;97922.94;4486680;31;20116;-80
2022/07/31 06:56:30;;;;;;;8.23;3.00;;;;;;;24.32;48.17;97931.56;4485670;32;20172;-80
2022/07/31 06:58:57;;;;;;;5.60;2.30;;;;;;;24.96;46.68;97933.72;4486774;31;20092;-80
2022/07/31 07:01:24;;;;;;;5.40;2.47;;;;;;;24.05;48.36;97920.13;4485368;32;20121;-80
2022/07/31 07:03:52;;;;;;;6.53;2.83;;;;;;;23.89;49.07;97944.53;4486605;31;20161;-80
2022/07/31 07:06:19;;;;;;;6.18;2.72;;;;;;;24.38;48.12;97942.31;4486423;31;20144;-80
2022/07/31 07:08:46;;;;;;;8.07;2.70;;;;;;;25.21;45.59;97932.03;4486660;31;20092;-80
2022/07/31 07:11:13;;;;;;;4.68;2.30;;;;;;;25.31;45.53;97929.25;4486784;31;20128;-80
2022/07/31 07:13:40;;;;;;;8.88;3.40;;;;;;;24.28;47.61;97919.63;4486159;31;20108;-79
2022/07/31 07:16:13;;;;;;;9.48;3.17;;;;;;;24.55;47.81;97940.59;4486482;31;20104;-79
2022/07/31 07:18:41;;;;;;;5.93;2.53;;;;;;;24.92;46.85;97942.94;4486485;31;20355;-79
2022/07/31 07:21:09;;;;;;;7.93;2.90;;;;;;;25.21;46.20;97947.06;4486198;31;20097;-79
2022/07/31 07:23:36;;;;;;;6.35;2.70;;;;;;;26.00;44.32;97956.28;4486395;31;20104;-79
2022/07/31 07:26:03;;;;;;;6.65;3.15;;;;;;;25.76;44.94;97934.16;4486378;31;20427;-80
2022/07/31 07:28:30;;;;;;;5.72;2.50;;;;;;;24.27;47.60;97952.25;4485988;31;20162;-80
2022/07/31 07:30:57;;;;;;;10.32;2.78;;;;;;;23.62;48.79;97939.38;4488481;31;20147;-80
2022/07/31 07:33:24;;;;;;;6.80;2.70;;;;;;;22.80;51.38;97938.38;4488462;31;20471;-80
2022/07/31 07:36:11;;;;;;;7.20;2.65;;;;;;;23.44;50.23;97954.28;4488179;31;20219;-80
2022/07/31 07:38:52;;;;;;;7.57;2.50;;;;;;;23.62;49.03;97958.63;4488471;31;20080;-80
2022/07/31 07:41:22;;;;;;;5.30;2.47;;;;;;;23.47;49.59;97946.91;4488252;31;20562;-80
2022/07/31 07:43:49;;;;;;;5.35;2.28;;;;;;;24.10;47.43;97970.56;4488282;31;20171;-80
2022/07/31 07:46:19;;;;;;;5.45;2.20;;;;;;;23.37;47.65;97938.25;4488433;31;20104;-80
2022/07/31 07:48:46;;;;;;;3.87;1.92;;;;;;;23.81;46.74;97948.91;4487966;31;20167;-80
2022/07/31 07:51:13;;;;;;;7.68;2.45;;;;;;;22.72;48.72;97940.06;4488228;31;20096;-79
2022/07/31 07:53:40;;;;;;;5.72;2.20;;;;;;;22.94;49.26;97952.06;4487031;32;20431;-80
2022/07/31 07:56:07;;;;;;;5.10;2.87;;;;;;;23.04;48.73;97955.47;4487960;31;20140;-79
2022/07/31 07:58:34;;;;;;;3.85;1.90;;;;;;;23.89;47.51;97962.97;4488377;31;20100;-80
2022/07/31 08:01:01;;;;;;;5.97;2.37;;;;;;;24.29;46.14;97964.28;4488356;31;20084;-80
2022/07/31 08:03:28;;;;;;;6.12;2.55;;;;;;;24.97;44.43;97964.38;4487822;31;20131;-80
2022/07/31 08:06:15;;;;;;;5.03;2.55;;;;;;;24.29;45.43;97972.22;4488425;31;20149;-80
2022/07/31 08:08:42;;;;;;;5.45;2.75;;;;;;;24.17;45.84;97966.34;4488274;31;20080;-80
2022/07/31 08:11:09;;;;;;;5.82;2.30;;;;;;;23.66;47.41;97972.31;4487888;31;20089;-80
2022/07/31 08:13:42;;;;;;;4.95;2.00;;;;;;;23.50;47.77;97966.84;4488282;31;20109;-80
2022/07/31 08:16:15;;;;;;;4.72;2.20;;;;;;;23.16;48.07;97937.69;4488121;31;20100;-80
2022/07/31 08:18:42;;;;;;;4.72;2.17;;;;;;;23.28;47.98;97968.91;4487801;31;20123;-80
2022/07/31 08:21:08;;;;;;;7.12;2.58;;;;;;;24.11;46.76;97984.56;4488235;31;20084;-80
2022/07/31 08:23:35;;;;;;;5.60;2.42;;;;;;;25.16;44.56;97976.56;4486664;32;20497;-80
2022/07/31 08:26:07;;;;;;;4.10;2.05;;;;;;;24.82;43.92;97981.81;4488051;31;20597;-80
2022/07/31 08:28:34;;;;;;;5.82;2.40;;;;;;;24.30;45.41;97965.94;4488245;31;20761;-80
2022/07/31 08:31:02;;;;;;;4.53;2.15;;;;;;;25.65;42.79;97969.62;4487786;31;20079;-80
2022/07/31 08:33:29;;;;;;;5.97;2.10;;;;;;;24.82;43.28;97968.63;4488024;31;20084;-80
2022/07/31 08:35:56;;;;;;;5.28;2.25;;;;;;;;;;4488058;31;20108;-80
2022/07/31 08:38:22;;;;;;;4.72;2.17;;;;;;;25.38;42.08;97973.31;4487770;31;20454;-80
2022/07/31 08:40:49;;;;;;;6.72;2.65;;;;;;;25.39;42.94;97982.06;4487791;31;20509;-80
2022/07/31 08:43:16;;;;;;;5.75;2.65;;;;;;;24.85;43.64;97980.66;4487885;31;20131;-80
2022/07/31 08:46:04;;;;;;;4.60;2.30;;;;;;;25.23;43.30;97989.97;4487751;31;20108;-80
2022/07/31 08:48:32;;;;;;;6.50;2.20;;;;;;;25.59;41.88;97977.34;4488067;31;20254;-80
2022/07/31 08:51:02;;;;;;;4.87;2.30;;;;;;;25.53;41.96;97994.69;4487855;31;20541;-80
2022/07/31 08:53:31;;;;;;;5.85;2.28;;;;;;;25.64;42.39;97991.75;4487669;31;20100;-80
2022/07/31 08:55:59;;;;;;;5.10;2.15;;;;;;;25.70;42.15;97989.47;4486754;32;20108;-80
2022/07/31 08:58:26;;;;;;;6.68;2.17;;;;;;;25.62;40.95;97987.59;4487617;31;20099;-80
2022/07/31 09:00:53;;;;;;;5.78;2.05;;;;;;;24.62;42.59;97957.47;4486702;32;20118;-80
2022/07/31 09:03:21;;;;;;;6.03;1.95;;;;;;;23.49;44.91;97989.72;4487802;31;20164;-80
2022/07/31 09:05:48;;;;;;;6.22;2.25;;;;;;;23.79;44.59;97974.56;4486395;32;20430;-80
2022/07/31 09:08:15;;;;;;;6.15;2.22;;;;;;;24.02;44.76;97982.84;4487723;31;20143;-80
2022/07/31 09:10:42;;;;;;;3.92;1.95;;;;;;;24.83;43.15;97957.06;4487830;31;20106;-80
2022/07/31 09:13:17;;;;;;;5.12;2.03;;;;;;;24.94;41.81;97977.09;4487440;32;20145;-80
2022/07/31 09:15:44;;;;;;;4.37;2.10;;;;;;;25.48;41.27;97969.72;4487826;31;20100;-80
2022/07/31 09:18:20;;;;;;;6.78;2.28;;;;;;;25.17;41.42;97970.28;4486481;32;20175;-80
2022/07/31 09:20:57;;;;;;;3.20;2.00;;;;;;;26.10;40.01;97954.31;4487431;31;20503;-80
2022/07/31 09:23:26;;;;;;;4.28;2.20;;;;;;;25.89;40.25;97974.13;4487686;31;20108;-80
2022/07/31 09:26:04;;;;;;;3.78;2.10;;;;;;;25.12;41.90;97974.41;4487606;31;20108;-80
2022/07/31 09:28:33;;;;;;;3.78;1.90;;;;;;;25.29;41.46;97976.09;4487394;31;20464;-80
2022/07/31 09:31:02;;;;;;;4.93;2.10;;;;;;;25.06;41.28;97963.47;4487658;31;20096;-80
2022/07/31 09:33:29;;;;;;;4.57;2.00;;;;;;;25.97;38.30;97961.91;4487532;31;20213;-80
2022/07/31 09:35:57;;;;;;;5.10;2.33;;;;;;;25.50;39.63;97962.47;4487571;31;20159;-80
2022/07/31 09:38:34;;;;;;;4.68;2.22;;;;;;;25.75;39.62;97987.16;4486495;32;20113;-79
2022/07/31 09:41:11;;;;;;;5.68;2.30;;;;;;;25.55;39.87;97966.28;4487206;31;20064;-79
2022/07/31 09:44:01;;;;;;;4.85;2.20;;;;;;;25.35;41.15;97959.63;4487637;31;20166;-79
2022/07/31 09:46:44;;;;;;;4.55;2.20;;;;;;;26.22;39.53;97969.66;4487399;31;20168;-80
2022/07/31 09:49:11;;;;;;;5.10;2.42;;;;;;;25.93;40.10;97964.03;4487022;31;20104;-80
2022/07/31 09:51:42;;;;;;;4.37;2.20;;;;;;;26.01;39.78;97964.06;4485799;32;20080;-79
2022/07/31 09:54:23;;;;;;;4.35;2.30;;;;;;;26.13;39.66;97965.37;4486341;32;20164;-79
2022/07/31 09:56:51;;;;;;;10.00;2.50;;;;;;;26.79;39.28;97966.97;4487097;31;20556;-79
2022/07/31 09:59:18;;;;;;;6.65;2.87;;;;;;;26.84;38.28;97973.56;4487333;31;20171;-79
2022/07/31 10:01:49;;;;;;;6.37;2.55;;;;;;;26.90;38.27;97972.87;4487116;31;20085;-79
2022/07/31 10:04:17;;;;;;;5.78;2.50;;;;;;;26.78;38.69;97961.84;4473676;32;20123;-79
2022/07/31 10:06:49;;;;;;;5.60;2.33;;;;;;;27.27;37.63;97972.28;4487398;31;20096;-79
2022/07/31 10:09:20;;;;;;;5.20;2.10;;;;;;;26.69;37.92;97962.84;4486040;32;20092;-79
2022/07/31 10:11:49;;;;;;;7.03;2.37;;;;;;;27.29;36.74;97973.75;4487525;31;20103;-79
2022/07/31 10:14:30;;;;;;;3.83;2.20;;;;;;;26.68;38.35;97974.44;4487240;31;20386;-79
2022/07/31 10:16:59;;;;;;;5.15;2.10;;;;;;;28.08;35.87;97969.16;4485996;32;20407;-79
2022/07/31 10:19:31;;;;;;;5.35;2.00;;;;;;;28.18;34.42;97972.41;4486069;32;20150;-79
2022/07/31 10:22:00;;;;;;;7.00;2.53;;;;;;;27.22;36.26;97956.06;4487417;31;20501;-79
2022/07/31 10:24:35;;;;;;;3.55;1.85;;;;;;;26.80;37.15;97968.63;4486778;32;20160;-79
2022/07/31 10:27:02;;;;;;;5.50;2.37;;;;;;;26.34;37.83;97961.41;4485989;32;20170;-79
2022/07/31 10:29:37;;;;;;;4.55;1.90;;;;;;;27.25;36.25;97966.34;4487448;31;20151;-79
2022/07/31 10:32:06;;;;;;;7.47;2.00;;;;;;;27.84;35.82;97956.06;4486215;32;20103;-80
2022/07/31 10:34:34;;;;;;;4.10;2.08;;;;;;;25.97;38.01;97972.50;4487073;31;20153;-80
2022/07/31 10:37:25;;;;;;;7.53;2.10;;;;;;;25.79;39.33;97954.12;4486879;31;20156;-80
2022/07/31 10:40:17;;;;;;;3.80;1.90;;;;;;;26.48;38.06;97974.00;4485724;32;20344;-80
2022/07/31 10:43:01;;;;;;;5.40;2.15;;;;;;;26.00;38.49;97972.16;4487145;32;20103;-80
2022/07/31 10:45:30;;;;;;;3.58;2.08;;;;;;;26.32;37.58;97980.09;4486556;31;20097;-80
2022/07/31 10:47:59;;;;;;;3.08;1.98;;;;;;;26.57;37.22;97961.56;4487186;31;20135;-80
2022/07/31 10:50:29;;;;;;;6.10;2.20;;;;;;;25.62;39.41;97971.72;4486663;31;20119;-80
2022/07/31 10:53:07;;;;;;;5.50;2.20;;;;;;;25.52;39.25;97979.81;4486542;32;20389;-80
2022/07/31 10:55:35;;;;;;;7.25;2.58;;;;;;;24.28;39.81;97975.00;4486803;31;20101;-80
2022/07/31 10:58:12;;;;;;;4.62;2.25;;;;;;;25.26;38.17;97968.50;4485412;32;20580;-80
2022/07/31 11:00:39;;;;;;;4.57;2.08;;;;;;;26.45;36.41;97979.59;4486675;31;20088;-79
2022/07/31 11:03:21;;;;;;;4.93;2.30;;;;;;;25.67;38.33;97974.72;4486882;31;20088;-79
2022/07/31 11:05:55;;;;;;;6.47;2.72;;;;;;;25.62;38.54;97977.84;4486965;32;20113;-80
2022/07/31 11:08:46;;;;;;;7.68;2.45;;;;;;;26.93;36.46;97977.84;4488808;31;20153;-79
2022/07/31 11:11:14;;;;;;;3.97;2.50;;;;;;;27.00;36.89;97979.63;4487626;32;20439;-80
2022/07/31 11:13:50;;;;;;;5.00;2.28;;;;;;;27.53;35.00;97970.16;4488245;31;20140;-80
2022/07/31 11:16:18;;;;;;;6.47;2.67;;;;;;;27.42;35.49;97970.53;4488722;31;20096;-80
2022/07/31 11:19:00;;;;;;;5.07;2.60;;;;;;;27.32;35.40;97967.28;4488425;31;20157;-80
2022/07/31 11:21:35;;;;;;;6.85;2.80;;;;;;;28.09;34.52;97965.50;4488643;31;20143;-80
2022/07/31 11:24:14;;;;;;;5.07;2.50;;;;;;;27.77;34.41;97965.75;4488623;31;20076;-80
2022/07/31 11:27:01;;;;;;;8.60;2.40;;;;;;;28.24;34.40;97962.88;4488242;31;20164;-80
2022/07/31 11:29:34;;;;;;;4.60;2.30;;;;;;;28.29;33.65;97965.03;4488677;31;20115;-80
2022/07/31 11:32:21;;;;;;;6.32;2.60;;;;;;;28.08;34.30;97961.22;4488708;31;20156;-80
2022/07/31 11:34:54;;;;;;;6.90;2.70;;;;;;;28.19;34.31;97950.16;4488135;31;20093;-79
2022/07/31 11:37:23;;;;;;;7.78;2.58;;;;;;;28.59;33.23;97953.44;4488492;31;20092;-80
2022/07/31 11:39:52;;;;;;;4.80;2.53;;;;;;;28.34;33.75;97952.88;4488052;31;20395;-79
2022/07/31 11:42:20;;;;;;;4.40;2.42;;;;;;;27.34;35.50;97950.25;4488333;31;20080;-79
2022/07/31 11:45:02;;;;;;;6.95;2.60;;;;;;;27.37;35.45;97944.59;4488390;31;20081;-80
2022/07/31 11:47:41;;;;;;;4.20;2.40;;;;;;;28.44;35.03;97934.03;4488200;31;20096;-80